sensor_id;sensor_type;location;lat;lon;timestamp;pressure;altitude;pressure_sealevel;temperature;humidity
64388;BME280;50709;52.648;4.764;2023-11-19T00:00:27;100621.91;;;16.81;74.30
64388;BME280;50709;52.648;4.764;2023-11-19T00:02:53;100633.50;;;17.08;73.96
64388;BME280;50709;52.648;4.764;2023-11-19T00:05:18;100633.31;;;16.81;74.95
64388;BME280;50709;52.648;4.764;2023-11-19T00:07:45;100630.78;;;16.78;75.23
64388;BME280;50709;52.648;4.764;2023-11-19T00:10:15;100634.03;;;16.88;74.55
64388;BME280;50709;52.648;4.764;2023-11-19T00:12:45;100636.72;;;16.87;75.17
64388;BME280;50709;52.648;4.764;2023-11-19T00:15:11;100609.06;;;16.69;75.05
64388;BME280;50709;52.648;4.764;2023-11-19T00:17:42;100626.63;;;16.70;74.93
64388;BME280;50709;52.648;4.764;2023-11-19T00:20:20;100633.72;;;16.68;75.38
64388;BME280;50709;52.648;4.764;2023-11-19T00:22:47;100618.63;;;16.73;75.18
64388;BME280;50709;52.648;4.764;2023-11-19T00:25:16;100625.34;;;16.85;74.76
64388;BME280;50709;52.648;4.764;2023-11-19T00:27:42;100618.47;;;16.79;75.04
64388;BME280;50709;52.648;4.764;2023-11-19T00:30:10;100608.19;;;16.70;75.58
64388;BME280;50709;52.648;4.764;2023-11-19T00:32:36;100607.38;;;16.66;75.03
64388;BME280;50709;52.648;4.764;2023-11-19T00:35:04;100607.19;;;16.74;74.45
64388;BME280;50709;52.648;4.764;2023-11-19T00:37:30;100613.34;;;16.73;75.22
64388;BME280;50709;52.648;4.764;2023-11-19T00:39:55;100603.50;;;16.79;74.09
64388;BME280;50709;52.648;4.764;2023-11-19T00:42:22;100613.97;;;16.50;75.78
64388;BME280;50709;52.648;4.764;2023-11-19T00:44:49;100598.19;;;16.48;75.68
64388;BME280;50709;52.648;4.764;2023-11-19T00:47:14;100610.81;;;16.35;76.20
64388;BME280;50709;52.648;4.764;2023-11-19T00:49:41;100613.66;;;16.62;75.49
64388;BME280;50709;52.648;4.764;2023-11-19T00:52:08;100602.47;;;16.85;74.24
64388;BME280;50709;52.648;4.764;2023-11-19T00:54:33;100611.63;;;16.72;75.10
64388;BME280;50709;52.648;4.764;2023-11-19T00:56:59;100608.69;;;16.82;74.27
64388;BME280;50709;52.648;4.764;2023-11-19T00:59:24;100612.78;;;16.61;75.21
64388;BME280;50709;52.648;4.764;2023-11-19T01:01:51;100575.53;;;16.41;75.46
64388;BME280;50709;52.648;4.764;2023-11-19T01:04:16;100591.59;;;16.64;75.02
64388;BME280;50709;52.648;4.764;2023-11-19T01:06:42;100593.31;;;16.67;74.49
64388;BME280;50709;52.648;4.764;2023-11-19T01:09:08;100593.94;;;16.75;75.00
64388;BME280;50709;52.648;4.764;2023-11-19T01:11:34;100582.13;;;16.57;74.76
64388;BME280;50709;52.648;4.764;2023-11-19T01:13:59;100584.19;;;16.79;74.50
64388;BME280;50709;52.648;4.764;2023-11-19T01:16:26;100581.88;;;16.67;74.79
64388;BME280;50709;52.648;4.764;2023-11-19T01:18:53;100580.50;;;16.85;74.29
64388;BME280;50709;52.648;4.764;2023-11-19T01:21:18;100567.50;;;16.78;74.18
64388;BME280;50709;52.648;4.764;2023-11-19T01:24:04;100568.81;;;16.62;74.63
64388;BME280;50709;52.648;4.764;2023-11-19T01:26:31;100558.47;;;16.54;74.52
64388;BME280;50709;52.648;4.764;2023-11-19T01:28:57;100585.00;;;16.81;74.54
64388;BME280;50709;52.648;4.764;2023-11-19T01:31:22;100585.34;;;16.69;74.12
64388;BME280;50709;52.648;4.764;2023-11-19T01:33:48;100595.69;;;16.75;74.43
64388;BME280;50709;52.648;4.764;2023-11-19T01:36:13;100594.06;;;16.38;74.83
64388;BME280;50709;52.648;4.764;2023-11-19T01:38:39;100607.75;;;16.52;75.23
64388;BME280;50709;52.648;4.764;2023-11-19T01:41:04;100604.03;;;16.59;74.93
64388;BME280;50709;52.648;4.764;2023-11-19T01:43:36;100616.66;;;16.81;74.36
64388;BME280;50709;52.648;4.764;2023-11-19T01:46:02;100581.47;;;16.49;74.33
64388;BME280;50709;52.648;4.764;2023-11-19T01:48:34;100607.06;;;16.45;75.64
64388;BME280;50709;52.648;4.764;2023-11-19T01:51:01;100613.09;;;16.49;75.70
64388;BME280;50709;52.648;4.764;2023-11-19T01:53:30;100606.34;;;16.39;75.66
64388;BME280;50709;52.648;4.764;2023-11-19T01:55:56;100579.09;;;16.40;74.84
64388;BME280;50709;52.648;4.764;2023-11-19T01:58:23;100614.78;;;16.52;74.63
64388;BME280;50709;52.648;4.764;2023-11-19T02:00:50;100605.50;;;16.37;75.89
64388;BME280;50709;52.648;4.764;2023-11-19T02:03:16;100595.47;;;16.51;75.20
64388;BME280;50709;52.648;4.764;2023-11-19T02:05:42;100597.41;;;16.77;74.36
64388;BME280;50709;52.648;4.764;2023-11-19T02:08:08;100601.16;;;16.69;74.35
64388;BME280;50709;52.648;4.764;2023-11-19T02:10:33;100594.91;;;16.73;74.41
64388;BME280;50709;52.648;4.764;2023-11-19T02:12:59;100595.59;;;16.46;74.83
64388;BME280;50709;52.648;4.764;2023-11-19T02:15:44;100599.53;;;16.64;74.36
64388;BME280;50709;52.648;4.764;2023-11-19T02:18:27;100603.59;;;16.76;74.20
64388;BME280;50709;52.648;4.764;2023-11-19T02:20:57;100596.03;;;16.62;74.46
64388;BME280;50709;52.648;4.764;2023-11-19T02:23:23;100592.09;;;16.79;73.64
64388;BME280;50709;52.648;4.764;2023-11-19T02:28:17;100595.28;;;16.57;73.98
64388;BME280;50709;52.648;4.764;2023-11-19T02:30:43;100595.91;;;16.69;74.62
64388;BME280;50709;52.648;4.764;2023-11-19T02:33:08;100588.69;;;16.75;74.01
64388;BME280;50709;52.648;4.764;2023-11-19T02:35:34;100596.03;;;16.62;73.18
64388;BME280;50709;52.648;4.764;2023-11-19T02:38:19;100562.66;;;16.63;74.27
64388;BME280;50709;52.648;4.764;2023-11-19T02:40:47;100587.25;;;16.96;72.89
64388;BME280;50709;52.648;4.764;2023-11-19T02:43:13;100573.94;;;16.68;72.64
64388;BME280;50709;52.648;4.764;2023-11-19T02:46:03;100593.44;;;16.95;72.93
64388;BME280;50709;52.648;4.764;2023-11-19T02:48:36;100584.81;;;16.56;72.73
64388;BME280;50709;52.648;4.764;2023-11-19T02:51:02;100599.97;;;16.80;73.56
64388;BME280;50709;52.648;4.764;2023-11-19T02:53:29;100594.59;;;16.84;73.40
64388;BME280;50709;52.648;4.764;2023-11-19T02:55:54;100570.00;;;16.50;73.11
64388;BME280;50709;52.648;4.764;2023-11-19T02:58:40;100596.69;;;16.71;73.16
64388;BME280;50709;52.648;4.764;2023-11-19T03:01:05;100596.22;;;16.56;73.51
64388;BME280;50709;52.648;4.764;2023-11-19T03:03:48;100611.63;;;16.72;73.10
64388;BME280;50709;52.648;4.764;2023-11-19T03:06:21;100583.94;;;16.21;72.85
64388;BME280;50709;52.648;4.764;2023-11-19T03:08:47;100611.06;;;16.60;73.29
64388;BME280;50709;52.648;4.764;2023-11-19T03:11:32;100597.31;;;16.47;72.33
64388;BME280;50709;52.648;4.764;2023-11-19T03:14:17;100582.94;;;16.59;72.31
64388;BME280;50709;52.648;4.764;2023-11-19T03:16:46;100588.13;;;16.62;72.81
64388;BME280;50709;52.648;4.764;2023-11-19T03:19:11;100575.13;;;16.56;72.94
64388;BME280;50709;52.648;4.764;2023-11-19T03:21:38;100589.22;;;16.55;72.77
64388;BME280;50709;52.648;4.764;2023-11-19T03:24:06;100586.41;;;16.28;72.68
64388;BME280;50709;52.648;4.764;2023-11-19T03:26:33;100590.09;;;16.21;72.95
64388;BME280;50709;52.648;4.764;2023-11-19T03:28:59;100586.03;;;16.42;72.37
64388;BME280;50709;52.648;4.764;2023-11-19T03:31:26;100592.28;;;16.40;72.12
64388;BME280;50709;52.648;4.764;2023-11-19T03:33:51;100575.34;;;16.48;73.02
64388;BME280;50709;52.648;4.764;2023-11-19T03:36:17;100579.94;;;16.40;73.30
64388;BME280;50709;52.648;4.764;2023-11-19T03:38:42;100575.56;;;16.39;72.75
64388;BME280;50709;52.648;4.764;2023-11-19T03:41:14;100577.50;;;16.33;72.69
64388;BME280;50709;52.648;4.764;2023-11-19T03:43:44;100547.84;;;16.24;72.18
64388;BME280;50709;52.648;4.764;2023-11-19T03:46:27;100577.88;;;16.52;71.42
64388;BME280;50709;52.648;4.764;2023-11-19T03:48:54;100579.53;;;16.23;71.43
64388;BME280;50709;52.648;4.764;2023-11-19T03:51:20;100585.38;;;16.34;72.33
64388;BME280;50709;52.648;4.764;2023-11-19T03:53:45;100580.47;;;16.55;72.68
64388;BME280;50709;52.648;4.764;2023-11-19T03:56:11;100577.34;;;16.39;72.63
64388;BME280;50709;52.648;4.764;2023-11-19T03:58:57;100587.53;;;16.53;72.55
64388;BME280;50709;52.648;4.764;2023-11-19T04:01:23;100592.66;;;16.57;70.83
64388;BME280;50709;52.648;4.764;2023-11-19T04:03:48;100590.88;;;16.25;71.75
64388;BME280;50709;52.648;4.764;2023-11-19T04:06:13;100590.25;;;16.50;72.18
64388;BME280;50709;52.648;4.764;2023-11-19T04:08:59;100596.09;;;16.28;72.21
64388;BME280;50709;52.648;4.764;2023-11-19T04:11:26;100572.41;;;16.25;72.21
64388;BME280;50709;52.648;4.764;2023-11-19T04:14:11;100601.84;;;16.42;71.76
64388;BME280;50709;52.648;4.764;2023-11-19T04:16:38;100594.19;;;16.33;71.64
64388;BME280;50709;52.648;4.764;2023-11-19T04:19:03;100600.19;;;16.40;71.11
64388;BME280;50709;52.648;4.764;2023-11-19T04:21:29;100594.19;;;16.33;71.31
64388;BME280;50709;52.648;4.764;2023-11-19T04:23:54;100609.09;;;16.34;72.02
64388;BME280;50709;52.648;4.764;2023-11-19T04:26:19;100600.00;;;16.46;71.51
64388;BME280;50709;52.648;4.764;2023-11-19T04:28:45;100584.75;;;16.24;70.66
64388;BME280;50709;52.648;4.764;2023-11-19T04:31:10;100604.59;;;16.71;70.44
64388;BME280;50709;52.648;4.764;2023-11-19T04:33:35;100612.47;;;16.39;71.24
64388;BME280;50709;52.648;4.764;2023-11-19T04:36:01;100598.81;;;16.58;70.98
64388;BME280;50709;52.648;4.764;2023-11-19T04:38:27;100602.59;;;16.47;71.16
64388;BME280;50709;52.648;4.764;2023-11-19T04:40:53;100588.19;;;16.61;70.33
64388;BME280;50709;52.648;4.764;2023-11-19T04:43:38;100598.25;;;16.45;70.10
64388;BME280;50709;52.648;4.764;2023-11-19T04:46:04;100598.81;;;16.23;70.71
64388;BME280;50709;52.648;4.764;2023-11-19T04:48:29;100600.31;;;16.34;70.85
64388;BME280;50709;52.648;4.764;2023-11-19T04:50:57;100602.78;;;16.41;70.88
64388;BME280;50709;52.648;4.764;2023-11-19T04:53:22;100607.16;;;16.41;70.42
64388;BME280;50709;52.648;4.764;2023-11-19T04:55:47;100587.16;;;16.34;71.14
64388;BME280;50709;52.648;4.764;2023-11-19T04:58:13;100609.50;;;16.52;70.18
64388;BME280;50709;52.648;4.764;2023-11-19T05:00:38;100607.25;;;16.38;70.56
64388;BME280;50709;52.648;4.764;2023-11-19T05:03:25;100589.63;;;16.40;71.35
64388;BME280;50709;52.648;4.764;2023-11-19T05:05:50;100600.59;;;16.23;70.61
64388;BME280;50709;52.648;4.764;2023-11-19T05:08:16;100600.56;;;16.59;70.40
64388;BME280;50709;52.648;4.764;2023-11-19T05:10:43;100605.50;;;16.37;69.02
64388;BME280;50709;52.648;4.764;2023-11-19T05:13:08;100617.66;;;16.42;69.98
64388;BME280;50709;52.648;4.764;2023-11-19T05:15:34;100617.22;;;16.26;70.42
64388;BME280;50709;52.648;4.764;2023-11-19T05:17:59;100623.16;;;16.35;70.43
64388;BME280;50709;52.648;4.764;2023-11-19T05:20:24;100621.84;;;16.51;69.70
64388;BME280;50709;52.648;4.764;2023-11-19T05:22:50;100625.38;;;16.50;70.40
64388;BME280;50709;52.648;4.764;2023-11-19T05:25:17;100605.38;;;16.43;69.99
64388;BME280;50709;52.648;4.764;2023-11-19T05:27:42;100629.22;;;16.71;70.21
64388;BME280;50709;52.648;4.764;2023-11-19T05:30:08;100621.31;;;16.71;69.80
64388;BME280;50709;52.648;4.764;2023-11-19T05:32:35;100618.41;;;16.47;69.57
64388;BME280;50709;52.648;4.764;2023-11-19T05:35:02;100618.81;;;16.32;68.90
64388;BME280;50709;52.648;4.764;2023-11-19T05:37:28;100625.41;;;16.48;69.63
64388;BME280;50709;52.648;4.764;2023-11-19T05:39:53;100601.00;;;16.42;69.76
64388;BME280;50709;52.648;4.764;2023-11-19T05:42:19;100626.13;;;16.55;69.67
64388;BME280;50709;52.648;4.764;2023-11-19T05:44:44;100625.84;;;16.31;70.37
64388;BME280;50709;52.648;4.764;2023-11-19T05:47:09;100619.44;;;16.42;70.04
64388;BME280;50709;52.648;4.764;2023-11-19T05:49:35;100632.47;;;16.46;69.89
64388;BME280;50709;52.648;4.764;2023-11-19T05:52:00;100605.03;;;16.21;69.64
64388;BME280;50709;52.648;4.764;2023-11-19T05:54:28;100620.97;;;16.16;69.25
64388;BME280;50709;52.648;4.764;2023-11-19T05:56:53;100622.78;;;16.48;70.11
64388;BME280;50709;52.648;4.764;2023-11-19T05:59:20;100628.13;;;16.45;69.68
64388;BME280;50709;52.648;4.764;2023-11-19T06:01:48;100629.28;;;16.35;70.32
64388;BME280;50709;52.648;4.764;2023-11-19T06:04:13;100624.72;;;16.42;70.29
64388;BME280;50709;52.648;4.764;2023-11-19T06:06:39;100619.75;;;16.29;70.58
64388;BME280;50709;52.648;4.764;2023-11-19T06:09:06;100624.09;;;16.32;69.84
64388;BME280;50709;52.648;4.764;2023-11-19T06:11:34;100621.59;;;16.26;70.90
64388;BME280;50709;52.648;4.764;2023-11-19T06:14:01;100606.31;;;16.40;70.21
64388;BME280;50709;52.648;4.764;2023-11-19T06:16:46;100601.94;;;16.39;70.17
64388;BME280;50709;52.648;4.764;2023-11-19T06:19:12;100616.53;;;16.53;69.50
64388;BME280;50709;52.648;4.764;2023-11-19T06:21:38;100608.50;;;16.23;70.47
64388;BME280;50709;52.648;4.764;2023-11-19T06:24:03;100603.03;;;16.30;70.33
64388;BME280;50709;52.648;4.764;2023-11-19T06:26:29;100577.88;;;16.19;69.91
64388;BME280;50709;52.648;4.764;2023-11-19T06:28:54;100578.56;;;16.25;70.74
64388;BME280;50709;52.648;4.764;2023-11-19T06:31:21;100585.88;;;16.14;69.70
64388;BME280;50709;52.648;4.764;2023-11-19T06:33:46;100599.81;;;16.19;69.96
64388;BME280;50709;52.648;4.764;2023-11-19T06:36:14;100604.03;;;16.25;70.91
64388;BME280;50709;52.648;4.764;2023-11-19T06:38:41;100593.19;;;16.03;70.07
64388;BME280;50709;52.648;4.764;2023-11-19T06:41:08;100581.97;;;15.94;70.17
64388;BME280;50709;52.648;4.764;2023-11-19T06:43:34;100604.03;;;16.25;69.26
64388;BME280;50709;52.648;4.764;2023-11-19T06:46:00;100612.38;;;16.08;69.87
64388;BME280;50709;52.648;4.764;2023-11-19T06:48:25;100608.53;;;16.21;70.13
64388;BME280;50709;52.648;4.764;2023-11-19T06:50:50;100608.63;;;16.17;69.92
64388;BME280;50709;52.648;4.764;2023-11-19T06:53:16;100604.66;;;16.00;69.68
64388;BME280;50709;52.648;4.764;2023-11-19T06:55:41;100612.38;;;16.08;70.00
64388;BME280;50709;52.648;4.764;2023-11-19T06:58:07;100623.91;;;16.04;69.49
64388;BME280;50709;52.648;4.764;2023-11-19T07:00:32;100615.81;;;16.10;70.07
64388;BME280;50709;52.648;4.764;2023-11-19T07:02:58;100628.50;;;15.95;69.54
64388;BME280;50709;52.648;4.764;2023-11-19T07:05:25;100631.94;;;16.34;70.61
64388;BME280;50709;52.648;4.764;2023-11-19T07:07:51;100627.56;;;15.98;70.57
64388;BME280;50709;52.648;4.764;2023-11-19T07:10:16;100634.25;;;16.11;70.09
64388;BME280;50709;52.648;4.764;2023-11-19T07:12:43;100627.28;;;16.09;71.06
64388;BME280;50709;52.648;4.764;2023-11-19T07:15:11;100638.91;;;16.00;70.83
64388;BME280;50709;52.648;4.764;2023-11-19T07:17:38;100623.47;;;16.21;70.43
64388;BME280;50709;52.648;4.764;2023-11-19T07:20:05;100631.81;;;16.04;70.11
64388;BME280;50709;52.648;4.764;2023-11-19T07:22:32;100635.25;;;16.06;71.65
64388;BME280;50709;52.648;4.764;2023-11-19T07:24:59;100633.75;;;15.95;70.28
64388;BME280;50709;52.648;4.764;2023-11-19T07:27:24;100633.34;;;16.12;70.90
64388;BME280;50709;52.648;4.764;2023-11-19T07:29:50;100632.16;;;16.24;70.39
64388;BME280;50709;52.648;4.764;2023-11-19T07:32:15;100620.16;;;16.12;70.04
64388;BME280;50709;52.648;4.764;2023-11-19T07:35:00;100622.56;;;16.22;70.41
64388;BME280;50709;52.648;4.764;2023-11-19T07:37:26;100629.00;;;16.10;69.89
64388;BME280;50709;52.648;4.764;2023-11-19T07:39:52;100646.72;;;16.39;69.99
64388;BME280;50709;52.648;4.764;2023-11-19T07:42:18;100633.25;;;16.17;69.49
64388;BME280;50709;52.648;4.764;2023-11-19T07:44:43;100634.25;;;16.11;68.89
64388;BME280;50709;52.648;4.764;2023-11-19T07:47:09;100629.94;;;16.09;69.83
64388;BME280;50709;52.648;4.764;2023-11-19T07:49:35;100638.78;;;16.41;70.27
64388;BME280;50709;52.648;4.764;2023-11-19T07:52:00;100651.22;;;16.70;69.91
64388;BME280;50709;52.648;4.764;2023-11-19T07:54:26;100640.34;;;16.50;68.77
64388;BME280;50709;52.648;4.764;2023-11-19T07:56:51;100630.03;;;16.73;68.15
64388;BME280;50709;52.648;4.764;2023-11-19T07:59:17;100628.72;;;17.23;68.17
64388;BME280;50709;52.648;4.764;2023-11-19T08:01:42;100621.06;;;17.13;67.24
64388;BME280;50709;52.648;4.764;2023-11-19T08:04:07;100634.81;;;17.55;67.84
64388;BME280;50709;52.648;4.764;2023-11-19T08:06:33;100633.47;;;17.70;65.36
64388;BME280;50709;52.648;4.764;2023-11-19T08:08:58;100625.97;;;18.12;65.62
64388;BME280;50709;52.648;4.764;2023-11-19T08:11:24;100606.25;;;17.96;63.97
64388;BME280;50709;52.648;4.764;2023-11-19T08:13:49;100623.69;;;18.02;65.53
64388;BME280;50709;52.648;4.764;2023-11-19T08:16:15;100631.88;;;17.94;65.68
64388;BME280;50709;52.648;4.764;2023-11-19T08:18:42;100618.81;;;17.88;65.01
64388;BME280;50709;52.648;4.764;2023-11-19T08:21:08;100638.16;;;17.90;64.88
64388;BME280;50709;52.648;4.764;2023-11-19T08:23:34;100642.25;;;18.00;65.49
64388;BME280;50709;52.648;4.764;2023-11-19T08:25:59;100644.25;;;18.20;64.99
64388;BME280;50709;52.648;4.764;2023-11-19T08:28:25;100639.50;;;18.30;64.18
64388;BME280;50709;52.648;4.764;2023-11-19T08:30:50;100651.88;;;18.56;64.05
64388;BME280;50709;52.648;4.764;2023-11-19T08:33:16;100659.00;;;18.79;64.01
64388;BME280;50709;52.648;4.764;2023-11-19T08:35:42;100644.00;;;18.28;64.27
64388;BME280;50709;52.648;4.764;2023-11-19T08:38:07;100650.91;;;18.59;63.00
64388;BME280;50709;52.648;4.764;2023-11-19T08:40:33;100641.31;;;18.81;62.71
64388;BME280;50709;52.648;4.764;2023-11-19T08:42:58;100628.34;;;18.74;62.93
64388;BME280;50709;52.648;4.764;2023-11-19T08:45:24;100645.66;;;18.57;62.97
64388;BME280;50709;52.648;4.764;2023-11-19T08:47:49;100642.72;;;18.66;62.18
64388;BME280;50709;52.648;4.764;2023-11-19T08:50:15;100647.44;;;18.57;64.22
64388;BME280;50709;52.648;4.764;2023-11-19T08:52:41;100640.47;;;18.79;62.72
64388;BME280;50709;52.648;4.764;2023-11-19T08:55:06;100644.97;;;18.77;62.23
64388;BME280;50709;52.648;4.764;2023-11-19T08:57:32;100648.13;;;18.89;63.12
64388;BME280;50709;52.648;4.764;2023-11-19T09:00:00;100651.75;;;18.85;63.38
64388;BME280;50709;52.648;4.764;2023-11-19T09:02:25;100660.19;;;18.71;62.14
64388;BME280;50709;52.648;4.764;2023-11-19T09:04:51;100649.34;;;18.53;60.60
64388;BME280;50709;52.648;4.764;2023-11-19T09:07:16;100637.06;;;18.51;62.07
64388;BME280;50709;52.648;4.764;2023-11-19T09:09:42;100655.34;;;18.57;61.87
64388;BME280;50709;52.648;4.764;2023-11-19T09:12:07;100627.53;;;18.46;63.91
64388;BME280;50709;52.648;4.764;2023-11-19T09:14:32;100624.81;;;18.73;63.28
64388;BME280;50709;52.648;4.764;2023-11-19T09:16:58;100637.63;;;18.86;61.39
64388;BME280;50709;52.648;4.764;2023-11-19T09:19:24;100655.63;;;19.01;62.17
64388;BME280;50709;52.648;4.764;2023-11-19T09:21:51;100634.50;;;18.99;63.24
64388;BME280;50709;52.648;4.764;2023-11-19T09:24:16;100640.19;;;19.12;62.55
64388;BME280;50709;52.648;4.764;2023-11-19T09:26:42;100636.19;;;19.26;62.48
64388;BME280;50709;52.648;4.764;2023-11-19T09:29:08;100606.09;;;19.05;62.47
64388;BME280;50709;52.648;4.764;2023-11-19T09:31:33;100607.41;;;19.40;61.05
64388;BME280;50709;52.648;4.764;2023-11-19T09:34:00;100621.78;;;19.09;61.13
64388;BME280;50709;52.648;4.764;2023-11-19T09:36:25;100630.44;;;18.89;61.13
64388;BME280;50709;52.648;4.764;2023-11-19T09:38:50;100634.56;;;19.22;62.19
64388;BME280;50709;52.648;4.764;2023-11-19T09:41:16;100631.78;;;19.01;61.99
64388;BME280;50709;52.648;4.764;2023-11-19T09:43:42;100631.34;;;19.13;62.25
64388;BME280;50709;52.648;4.764;2023-11-19T09:46:13;100611.09;;;18.89;63.13
64388;BME280;50709;52.648;4.764;2023-11-19T09:48:39;100631.69;;;19.04;62.80
64388;BME280;50709;52.648;4.764;2023-11-19T09:51:09;100640.84;;;19.19;61.84
64388;BME280;50709;52.648;4.764;2023-11-19T09:53:36;100629.97;;;19.50;61.28
64388;BME280;50709;52.648;4.764;2023-11-19T09:56:03;100639.88;;;19.22;61.48
64388;BME280;50709;52.648;4.764;2023-11-19T09:58:29;100650.34;;;19.25;61.06
64388;BME280;50709;52.648;4.764;2023-11-19T10:00:55;100645.97;;;19.24;60.08
64388;BME280;50709;52.648;4.764;2023-11-19T10:03:22;100642.13;;;19.09;60.02
64388;BME280;50709;52.648;4.764;2023-11-19T10:05:48;100653.81;;;19.50;61.27
64388;BME280;50709;52.648;4.764;2023-11-19T10:08:14;100635.91;;;19.10;60.92
64388;BME280;50709;52.648;4.764;2023-11-19T10:10:39;100648.66;;;18.98;60.44
64388;BME280;50709;52.648;4.764;2023-11-19T10:13:04;100653.59;;;19.33;60.83
64388;BME280;50709;52.648;4.764;2023-11-19T10:15:33;100659.50;;;19.16;61.16
64388;BME280;50709;52.648;4.764;2023-11-19T10:18:00;100659.44;;;19.41;61.92
64388;BME280;50709;52.648;4.764;2023-11-19T10:20:26;100658.81;;;19.35;62.12
64388;BME280;50709;52.648;4.764;2023-11-19T10:22:54;100656.31;;;19.06;61.25
64388;BME280;50709;52.648;4.764;2023-11-19T10:25:27;100651.22;;;19.25;59.54
64388;BME280;50709;52.648;4.764;2023-11-19T10:27:53;100632.31;;;19.11;58.69
64388;BME280;50709;52.648;4.764;2023-11-19T10:30:23;100606.59;;;18.65;63.81
64388;BME280;50709;52.648;4.764;2023-11-19T10:33:08;100634.75;;;18.41;63.38
64388;BME280;50709;52.648;4.764;2023-11-19T10:35:36;100620.69;;;18.12;65.35
64388;BME280;50709;52.648;4.764;2023-11-19T10:38:14;100632.16;;;18.13;65.73
64388;BME280;50709;52.648;4.764;2023-11-19T10:40:43;100631.75;;;18.25;65.74
64388;BME280;50709;52.648;4.764;2023-11-19T10:43:08;100641.75;;;18.15;66.18
64388;BME280;50709;52.648;4.764;2023-11-19T10:45:38;100605.97;;;18.05;64.83
64388;BME280;50709;52.648;4.764;2023-11-19T10:48:04;100609.56;;;18.03;64.28
64388;BME280;50709;52.648;4.764;2023-11-19T10:50:37;100619.44;;;18.24;65.75
64388;BME280;50709;52.648;4.764;2023-11-19T10:53:03;100618.63;;;18.22;64.28
64388;BME280;50709;52.648;4.764;2023-11-19T10:55:32;100615.38;;;18.14;63.49
64388;BME280;50709;52.648;4.764;2023-11-19T10:58:00;100631.63;;;18.28;63.41
64388;BME280;50709;52.648;4.764;2023-11-19T11:00:26;100624.66;;;17.99;62.83
64388;BME280;50709;52.648;4.764;2023-11-19T11:02:59;100596.47;;;17.71;63.68
64388;BME280;50709;52.648;4.764;2023-11-19T11:05:26;100628.94;;;17.75;62.65
64388;BME280;50709;52.648;4.764;2023-11-19T11:07:52;100628.88;;;17.76;63.01
64388;BME280;50709;52.648;4.764;2023-11-19T11:10:21;100636.53;;;17.56;63.74
64388;BME280;50709;52.648;4.764;2023-11-19T11:12:52;100627.09;;;17.77;64.62
64388;BME280;50709;52.648;4.764;2023-11-19T11:15:22;100629.19;;;17.95;64.93
64388;BME280;50709;52.648;4.764;2023-11-19T11:17:50;100616.84;;;17.66;64.04
64388;BME280;50709;52.648;4.764;2023-11-19T11:20:18;100631.91;;;17.64;64.87
64388;BME280;50709;52.648;4.764;2023-11-19T11:25:49;100635.59;;;18.42;63.59
64388;BME280;50709;52.648;4.764;2023-11-19T11:28:39;100619.69;;;18.69;62.38
64388;BME280;50709;52.648;4.764;2023-11-19T11:37:12;100626.72;;;18.70;61.08
64388;BME280;50709;52.648;4.764;2023-11-19T11:39:42;100616.22;;;18.41;61.60
64388;BME280;50709;52.648;4.764;2023-11-19T11:45:06;100617.31;;;18.86;62.85
64388;BME280;50709;52.648;4.764;2023-11-19T11:50:13;100616.94;;;18.72;63.43
64388;BME280;50709;52.648;4.764;2023-11-19T11:55:52;100612.34;;;18.77;61.71
64388;BME280;50709;52.648;4.764;2023-11-19T11:58:22;100627.25;;;18.79;61.53
64388;BME280;50709;52.648;4.764;2023-11-19T12:00:51;100609.28;;;18.64;63.05
64388;BME280;50709;52.648;4.764;2023-11-19T12:03:20;100620.31;;;18.50;64.07
64388;BME280;50709;52.648;4.764;2023-11-19T12:05:47;100627.69;;;18.67;63.80
64388;BME280;50709;52.648;4.764;2023-11-19T12:08:13;100602.66;;;18.52;63.23
64388;BME280;50709;52.648;4.764;2023-11-19T12:10:51;100622.94;;;18.77;62.47
64388;BME280;50709;52.648;4.764;2023-11-19T12:13:18;100623.69;;;18.80;62.74
64388;BME280;50709;52.648;4.764;2023-11-19T12:18:23;100620.03;;;18.85;62.32
64388;BME280;50709;52.648;4.764;2023-11-19T12:20:48;100610.41;;;19.07;62.88
64388;BME280;50709;52.648;4.764;2023-11-19T12:23:14;100608.16;;;18.71;63.23
64388;BME280;50709;52.648;4.764;2023-11-19T12:25:40;100603.50;;;18.78;62.79
64388;BME280;50709;52.648;4.764;2023-11-19T12:28:11;100605.19;;;18.80;63.31
64388;BME280;50709;52.648;4.764;2023-11-19T12:30:36;100581.31;;;18.57;60.99
64388;BME280;50709;52.648;4.764;2023-11-19T12:33:08;100600.31;;;18.68;62.31
64388;BME280;50709;52.648;4.764;2023-11-19T12:35:41;100596.97;;;18.63;61.96
64388;BME280;50709;52.648;4.764;2023-11-19T12:38:07;100603.31;;;18.82;61.33
64388;BME280;50709;52.648;4.764;2023-11-19T12:40:32;100614.19;;;18.49;62.11
64388;BME280;50709;52.648;4.764;2023-11-19T12:42:58;100596.47;;;18.77;62.38
64388;BME280;50709;52.648;4.764;2023-11-19T12:45:36;100616.00;;;18.22;61.22
64388;BME280;50709;52.648;4.764;2023-11-19T12:48:09;100612.88;;;18.36;63.42
64388;BME280;50709;52.648;4.764;2023-11-19T12:50:53;100619.25;;;18.56;62.91
64388;BME280;50709;52.648;4.764;2023-11-19T12:53:20;100605.06;;;18.58;62.16
64388;BME280;50709;52.648;4.764;2023-11-19T12:55:45;100598.28;;;18.24;61.68
64388;BME280;50709;52.648;4.764;2023-11-19T12:58:36;100595.88;;;18.18;61.46
64388;BME280;50709;52.648;4.764;2023-11-19T13:01:05;100609.53;;;18.31;62.59
64388;BME280;50709;52.648;4.764;2023-11-19T13:03:33;100608.50;;;18.35;62.09
64388;BME280;50709;52.648;4.764;2023-11-19T13:06:06;100613.53;;;18.16;62.17
64388;BME280;50709;52.648;4.764;2023-11-19T13:08:42;100606.53;;;18.15;60.96
64388;BME280;50709;52.648;4.764;2023-11-19T13:11:09;100584.81;;;18.05;60.96
64388;BME280;50709;52.648;4.764;2023-11-19T13:13:59;100607.41;;;18.41;61.15
64388;BME280;50709;52.648;4.764;2023-11-19T13:16:26;100614.91;;;18.55;61.18